createdAt,value
2019-03-28T00:00:36.631Z,56.20
2019-03-28T00:03:06.795Z,56.30
2019-03-28T00:05:37.071Z,56.30
2019-03-28T00:08:07.327Z,56.60
2019-03-28T00:10:37.504Z,56.80
2019-03-28T00:13:07.693Z,56.90
2019-03-28T00:15:39.478Z,56.90
2019-03-28T00:18:09.673Z,57.10
2019-03-28T00:20:39.853Z,57.10
2019-03-28T00:23:29.781Z,57.20
2019-03-28T00:26:00.216Z,57.20
2019-03-28T00:28:30.451Z,57.30
2019-03-28T00:31:00.763Z,57.30
2019-03-28T00:33:30.967Z,57.50
2019-03-28T00:36:01.159Z,57.50
2019-03-28T00:38:31.591Z,58.00
2019-03-28T00:41:01.979Z,57.60
2019-03-28T00:43:32.171Z,57.60
2019-03-28T00:46:02.452Z,58.00
2019-03-28T00:48:32.647Z,58.20
2019-03-28T00:51:02.876Z,58.40
2019-03-28T00:53:33.156Z,58.40
2019-03-28T00:56:03.456Z,58.30
2019-03-28T00:58:34.189Z,58.10
2019-03-28T01:01:05.127Z,58.30
2019-03-28T01:03:36.352Z,58.40
2019-03-28T01:06:07.335Z,58.20
2019-03-28T01:08:37.931Z,58.40
2019-03-28T01:11:08.312Z,58.40
2019-03-28T01:13:38.509Z,58.40
2019-03-28T01:16:08.788Z,58.40
2019-03-28T01:18:39.105Z,58.50
2019-03-28T01:21:09.092Z,58.50
2019-03-28T01:23:39.107Z,58.70
2019-03-28T01:26:09.099Z,58.70
2019-03-28T01:28:39.919Z,58.70
2019-03-28T01:31:10.344Z,58.70
2019-03-28T01:33:40.600Z,58.60
2019-03-28T01:36:13.111Z,58.50
2019-03-28T01:38:43.213Z,58.60
2019-03-28T01:41:13.196Z,58.50
2019-03-28T01:43:43.192Z,58.60
2019-03-28T01:46:13.196Z,59.30
2019-03-28T01:48:43.179Z,58.60
2019-03-28T01:51:13.270Z,58.70
2019-03-28T01:53:43.264Z,58.80
2019-03-28T01:56:13.283Z,58.60
2019-03-28T01:58:43.252Z,59.10
2019-03-28T02:01:13.268Z,59.20
2019-03-28T02:03:43.339Z,59.20
2019-03-28T02:06:13.324Z,59.10
2019-03-28T02:08:43.327Z,59.00
2019-03-28T02:11:13.307Z,59.00
2019-03-28T02:13:43.358Z,59.00
2019-03-28T02:16:13.587Z,58.90
2019-03-28T02:18:45.369Z,58.90
2019-03-28T02:21:15.488Z,58.70
2019-03-28T02:23:45.711Z,58.70
2019-03-28T02:26:15.928Z,58.70
2019-03-28T02:28:45.896Z,58.60
2019-03-28T02:31:17.546Z,58.50
2019-03-28T02:33:47.608Z,58.60
2019-03-28T02:36:17.681Z,58.50
2019-03-28T02:38:47.887Z,58.40
2019-03-28T02:41:18.191Z,58.50
2019-03-28T02:43:48.483Z,58.40
2019-03-28T02:46:18.860Z,58.30
2019-03-28T02:48:49.144Z,58.30
2019-03-28T02:51:19.403Z,58.10
2019-03-28T02:53:49.797Z,58.20
2019-03-28T02:56:19.976Z,58.10
2019-03-28T02:58:50.201Z,58.10
2019-03-28T03:01:20.505Z,58.10
2019-03-28T03:03:52.268Z,58.10
2019-03-28T03:06:22.481Z,58.20
2019-03-28T03:08:52.701Z,58.20
2019-03-28T03:11:22.922Z,58.20
2019-03-28T03:13:53.122Z,58.30
2019-03-28T03:16:23.329Z,58.50
2019-03-28T03:18:53.549Z,58.70
2019-03-28T03:21:25.372Z,58.90
2019-03-28T03:23:55.587Z,59.20
2019-03-28T03:26:26.543Z,59.30
2019-03-28T03:28:56.751Z,59.50
2019-03-28T03:31:27.004Z,59.50
2019-03-28T03:33:57.314Z,59.60
2019-03-28T03:36:27.661Z,59.70
2019-03-28T03:38:57.879Z,59.80
2019-03-28T03:41:29.698Z,59.90
2019-03-28T03:43:59.919Z,60.00
2019-03-28T03:46:30.109Z,60.30
2019-03-28T03:49:00.307Z,60.40
2019-03-28T03:51:31.167Z,60.50
2019-03-28T03:54:01.450Z,60.60
2019-03-28T03:56:31.816Z,60.70
2019-03-28T03:59:02.008Z,60.80
2019-03-28T04:01:32.219Z,60.70
2019-03-28T04:04:02.493Z,60.60
2019-03-28T04:06:32.674Z,60.50
2019-03-28T04:09:02.933Z,60.40
2019-03-28T04:11:33.296Z,60.30
2019-03-28T04:14:04.481Z,60.30
2019-03-28T04:16:36.241Z,60.10
2019-03-28T04:19:06.429Z,60.00
2019-03-28T04:21:36.691Z,60.10
2019-03-28T04:24:06.920Z,60.20
2019-03-28T04:26:37.097Z,60.20
2019-03-28T04:29:07.279Z,60.40
2019-03-28T04:31:37.504Z,60.40
2019-03-28T04:34:09.386Z,60.50
2019-03-28T04:36:40.832Z,60.90
2019-03-28T04:39:11.416Z,60.30
2019-03-28T04:41:41.605Z,60.20
2019-03-28T04:44:11.792Z,59.80
2019-03-28T04:46:42.120Z,59.50
2019-03-28T04:49:14.414Z,60.10
2019-03-28T04:51:45.772Z,59.70
2019-03-28T04:54:15.984Z,59.70
2019-03-28T04:56:46.174Z,59.80
2019-03-28T04:59:16.376Z,59.80
2019-03-28T05:02:00.967Z,59.70
2019-03-28T05:04:21.220Z,59.50
2019-03-28T05:06:53.155Z,59.20
2019-03-28T05:09:23.355Z,58.90
2019-03-28T05:11:53.559Z,58.50
2019-03-28T05:14:23.747Z,57.80
2019-03-28T05:16:55.615Z,57.90
2019-03-28T05:19:25.881Z,57.60
2019-03-28T05:21:56.471Z,57.20
2019-03-28T05:24:27.094Z,57.30
2019-03-28T05:26:57.325Z,57.50
2019-03-28T05:29:27.541Z,56.50
2019-03-28T05:31:57.727Z,56.00
2019-03-28T05:34:27.943Z,55.50
2019-03-28T05:36:58.116Z,55.30
2019-03-28T05:39:28.330Z,55.00
2019-03-28T05:41:58.622Z,54.70
2019-03-28T05:44:28.814Z,54.60
2019-03-28T05:46:59.035Z,54.60
2019-03-28T05:49:29.341Z,54.40
2019-03-28T05:51:59.582Z,54.20
2019-03-28T05:54:31.391Z,54.10
2019-03-28T05:57:01.589Z,53.90
2019-03-28T05:59:31.828Z,53.90
2019-03-28T06:02:02.017Z,53.80
2019-03-28T06:04:32.233Z,53.60
2019-03-28T06:07:02.448Z,53.30
2019-03-28T06:09:32.669Z,53.10
2019-03-28T06:12:02.899Z,52.70
2019-03-28T06:14:33.080Z,52.50
2019-03-28T06:17:03.371Z,52.10
2019-03-28T06:19:33.729Z,52.20
2019-03-28T06:22:03.984Z,51.90
2019-03-28T06:24:34.282Z,51.50
2019-03-28T06:27:04.617Z,50.90
2019-03-28T06:29:34.954Z,51.30
2019-03-28T06:32:05.213Z,51.20
2019-03-28T06:34:35.529Z,50.90
2019-03-28T06:37:06.424Z,50.70
2019-03-28T06:39:36.943Z,50.50
2019-03-28T06:42:07.166Z,50.10
2019-03-28T06:44:37.348Z,50.00
2019-03-28T06:47:07.556Z,49.90
2019-03-28T06:49:37.778Z,49.80
2019-03-28T06:52:08.458Z,49.70
2019-03-28T06:54:38.781Z,49.50
2019-03-28T06:57:08.979Z,49.00
2019-03-28T06:59:40.781Z,49.20
2019-03-28T07:02:10.969Z,48.60
2019-03-28T07:04:41.200Z,49.20
2019-03-28T07:07:11.500Z,49.30
2019-03-28T07:09:41.727Z,49.00
2019-03-28T07:12:11.953Z,49.00
2019-03-28T07:14:42.180Z,48.70
2019-03-28T07:17:12.402Z,48.80
2019-03-28T07:19:42.591Z,48.70
2019-03-28T07:22:12.832Z,48.50
2019-03-28T07:24:43.031Z,48.70
2019-03-28T07:27:13.320Z,48.90
2019-03-28T07:29:50.716Z,49.00
2019-03-28T07:32:15.429Z,49.30
2019-03-28T07:34:45.626Z,49.20
2019-03-28T07:37:15.866Z,49.00
2019-03-28T07:39:46.123Z,48.50
2019-03-28T07:42:16.359Z,47.90
2019-03-28T07:44:49.041Z,47.20
2019-03-28T07:47:19.355Z,47.00
2019-03-28T07:49:49.561Z,46.70
2019-03-28T07:52:20.182Z,46.20
2019-03-28T07:54:50.558Z,45.40
2019-03-28T07:57:20.778Z,45.80
2019-03-28T08:00:03.618Z,45.40
2019-03-28T08:02:23.012Z,44.20
2019-03-28T08:04:53.237Z,43.30
2019-03-28T08:07:23.439Z,42.70
2019-03-28T08:09:53.728Z,42.00
2019-03-28T08:12:23.983Z,41.80
2019-03-28T08:14:54.561Z,41.30
2019-03-28T08:17:24.781Z,40.40
2019-03-28T08:19:55.035Z,40.60
2019-03-28T08:22:25.215Z,41.00
2019-03-28T08:24:55.446Z,41.30
2019-03-28T08:27:25.733Z,40.70
2019-03-28T08:29:57.966Z,39.90
2019-03-28T08:32:28.950Z,39.20
2019-03-28T08:35:00.771Z,38.10
2019-03-28T08:37:31.417Z,36.50
2019-03-28T08:40:01.778Z,35.30
2019-03-28T08:42:31.997Z,34.40
2019-03-28T08:45:02.205Z,33.10
2019-03-28T08:47:32.416Z,31.80
2019-03-28T08:50:02.653Z,31.00
2019-03-28T08:52:32.845Z,30.60
2019-03-28T08:55:03.476Z,30.40
2019-03-28T08:57:33.668Z,30.30
2019-03-28T09:00:07.240Z,30.20
2019-03-28T09:02:37.485Z,29.80
2019-03-28T09:05:07.696Z,29.20
2019-03-28T09:07:37.917Z,28.60
2019-03-28T09:10:10.303Z,27.60
2019-03-28T09:12:40.552Z,27.00
2019-03-28T09:15:10.840Z,26.60
2019-03-28T09:17:41.074Z,27.20
2019-03-28T09:20:11.288Z,27.70
2019-03-28T09:22:41.588Z,27.70
2019-03-28T09:25:12.505Z,27.50
2019-03-28T09:27:42.796Z,26.50
2019-03-28T09:30:13.032Z,26.60
2019-03-28T09:32:43.265Z,26.30
2019-03-28T09:35:16.638Z,25.70
2019-03-28T09:37:48.467Z,25.60
2019-03-28T09:40:18.745Z,26.40
2019-03-28T09:42:49.102Z,26.80
2019-03-28T09:45:19.337Z,27.50
2019-03-28T09:47:51.097Z,27.20
2019-03-28T09:50:21.337Z,27.90
2019-03-28T09:52:51.512Z,28.40
2019-03-28T09:55:21.722Z,29.90
2019-03-28T09:57:53.555Z,30.40
2019-03-28T10:00:26.915Z,31.00
2019-03-28T10:02:57.273Z,31.10
2019-03-28T10:05:27.460Z,32.20
2019-03-28T10:07:57.670Z,31.70
2019-03-28T10:10:27.904Z,30.90
2019-03-28T10:12:58.279Z,30.70
2019-03-28T10:15:28.484Z,30.50
2019-03-28T10:17:58.912Z,30.60
2019-03-28T10:20:29.108Z,30.60
2019-03-28T10:22:59.319Z,31.00
2019-03-28T10:25:29.535Z,30.00
2019-03-28T10:27:59.761Z,30.30
2019-03-28T10:30:40.494Z,30.20
2019-03-28T10:33:10.771Z,30.40
2019-03-28T10:35:41.792Z,30.80
2019-03-28T10:38:12.021Z,31.70
2019-03-28T10:40:42.218Z,32.50
2019-03-28T10:43:12.595Z,33.10
2019-03-28T10:45:42.855Z,33.90
2019-03-28T10:48:13.133Z,34.30
2019-03-28T10:50:45.808Z,34.50
2019-03-28T10:53:17.673Z,33.30
2019-03-28T10:55:49.432Z,32.60
2019-03-28T10:58:19.818Z,31.80
2019-03-28T11:00:50.369Z,31.60
2019-03-28T11:03:20.630Z,31.60
2019-03-28T11:05:51.003Z,31.50
2019-03-28T11:08:21.226Z,31.20
2019-03-28T11:10:52.241Z,31.20
2019-03-28T11:13:22.473Z,31.30
2019-03-28T11:15:52.921Z,31.50
2019-03-28T11:18:23.161Z,31.60
2019-03-28T11:20:53.361Z,31.90
2019-03-28T11:23:23.580Z,32.20
2019-03-28T11:25:57.146Z,31.90
2019-03-28T11:28:25.765Z,32.40
2019-03-28T11:30:56.009Z,32.60
2019-03-28T11:33:26.284Z,32.80
2019-03-28T11:35:56.472Z,33.10
2019-03-28T11:38:26.680Z,33.10
2019-03-28T11:40:56.923Z,33.10
2019-03-28T11:43:27.140Z,33.60
2019-03-28T11:45:57.402Z,33.50
2019-03-28T11:48:27.801Z,33.20
2019-03-28T11:50:59.555Z,33.20
2019-03-28T11:53:29.754Z,33.30
2019-03-28T11:56:00.028Z,33.00
2019-03-28T11:58:30.270Z,32.90
2019-03-28T12:01:00.651Z,32.90
2019-03-28T12:03:31.052Z,32.60
2019-03-28T12:06:01.277Z,32.30
2019-03-28T12:08:31.469Z,32.30
2019-03-28T12:11:01.676Z,31.60
2019-03-28T12:13:44.249Z,32.10
2019-03-28T12:16:03.986Z,31.90
2019-03-28T12:18:34.305Z,32.10
2019-03-28T12:21:04.534Z,31.90
2019-03-28T12:23:34.748Z,32.00
2019-03-28T12:26:04.983Z,32.10
2019-03-28T12:28:35.265Z,32.20
2019-03-28T12:31:06.397Z,32.10
2019-03-28T12:33:37.582Z,32.20
2019-03-28T12:36:07.955Z,33.00
2019-03-28T12:38:38.551Z,33.60
2019-03-28T12:41:10.438Z,33.90
2019-03-28T12:43:40.663Z,33.80
2019-03-28T12:46:10.841Z,33.70
2019-03-28T12:48:41.154Z,33.90
2019-03-28T12:51:11.467Z,34.20
2019-03-28T12:53:41.655Z,34.50
2019-03-28T12:56:12.462Z,34.70
2019-03-28T12:58:42.952Z,35.00
2019-03-28T13:01:13.189Z,35.30
2019-03-28T13:03:45.677Z,34.40
2019-03-28T13:06:15.298Z,34.40
2019-03-28T13:08:47.056Z,34.20
2019-03-28T13:11:17.482Z,34.00
2019-03-28T13:13:47.946Z,34.30
2019-03-28T13:16:18.538Z,33.80
2019-03-28T13:18:48.896Z,33.60
2019-03-28T13:21:20.700Z,33.80
2019-03-28T13:23:50.897Z,34.20
2019-03-28T13:26:21.193Z,34.30
2019-03-28T13:28:51.387Z,35.00
2019-03-28T13:31:21.576Z,35.60
2019-03-28T13:33:51.804Z,36.00
2019-03-28T13:36:21.991Z,36.80
2019-03-28T13:38:52.539Z,37.40
2019-03-28T13:41:25.160Z,38.20
2019-03-28T13:43:55.408Z,38.40
2019-03-28T13:46:25.617Z,38.90
2019-03-28T13:48:55.873Z,39.40
2019-03-28T13:51:26.149Z,39.90
2019-03-28T13:53:56.355Z,40.10
2019-03-28T13:56:26.619Z,40.30
2019-03-28T13:58:56.969Z,40.40
2019-03-28T14:01:27.165Z,40.50
2019-03-28T14:03:57.387Z,40.50
2019-03-28T14:06:27.584Z,40.60
2019-03-28T14:08:57.815Z,40.60
2019-03-28T14:11:28.027Z,40.70
2019-03-28T14:13:58.340Z,41.00
2019-03-28T14:16:28.804Z,41.30
2019-03-28T14:18:59.070Z,41.60
2019-03-28T14:21:29.357Z,41.50
2019-03-28T14:23:59.608Z,41.60
2019-03-28T14:29:07.880Z,42.10
2019-03-28T14:31:38.117Z,42.70
2019-03-28T14:34:08.488Z,42.70
2019-03-28T14:36:38.770Z,43.10
2019-03-28T14:39:08.972Z,43.20
2019-03-28T14:41:39.181Z,43.20
2019-03-28T14:44:09.410Z,43.30
2019-03-28T14:46:39.690Z,43.60
2019-03-28T14:49:10.017Z,43.90
2019-03-28T14:51:41.109Z,44.40
2019-03-28T14:54:13.457Z,44.50
2019-03-28T14:56:43.637Z,44.30
2019-03-28T14:59:15.406Z,44.40
2019-03-28T15:01:45.664Z,44.80
2019-03-28T15:04:15.896Z,45.00
2019-03-28T15:06:46.101Z,45.30
2019-03-28T15:09:16.319Z,45.50
2019-03-28T15:11:46.544Z,45.40
2019-03-28T15:14:16.825Z,45.50
2019-03-28T15:16:47.036Z,45.70
2019-03-28T15:19:17.292Z,45.90
2019-03-28T15:21:47.688Z,46.10
2019-03-28T15:24:17.921Z,46.30
2019-03-28T15:26:48.169Z,46.50
2019-03-28T15:29:18.548Z,46.50
2019-03-28T15:31:51.136Z,46.80
2019-03-28T15:34:21.525Z,47.00
2019-03-28T15:36:51.787Z,47.00
2019-03-28T15:39:22.024Z,46.90
2019-03-28T15:41:52.265Z,46.80
2019-03-28T15:44:22.517Z,46.60
2019-03-28T15:46:52.725Z,46.40
2019-03-28T15:49:24.594Z,46.60
2019-03-28T15:51:54.835Z,46.80
2019-03-28T15:54:30.801Z,46.70
2019-03-28T16:04:36.850Z,46.70
2019-03-28T16:07:08.015Z,47.50
2019-03-28T16:09:38.475Z,47.90
2019-03-28T16:12:08.680Z,48.00
2019-03-28T16:14:38.975Z,48.10
2019-03-28T16:17:09.219Z,48.20
2019-03-28T16:19:39.439Z,48.00
2019-03-28T16:22:09.716Z,48.00
2019-03-28T16:24:40.014Z,47.90
2019-03-28T16:27:11.874Z,48.10
2019-03-28T16:29:54.486Z,48.10
2019-03-28T16:32:24.916Z,48.30
2019-03-28T16:38:47.719Z,48.80
2019-03-28T16:43:54.907Z,49.40
2019-03-28T16:46:25.093Z,49.70
2019-03-28T16:48:56.580Z,49.60
2019-03-28T16:51:27.047Z,49.60
2019-03-28T16:54:00.319Z,50.60
2019-03-28T16:56:30.570Z,50.10
2019-03-28T16:59:00.803Z,50.10
2019-03-28T17:01:32.616Z,50.20
2019-03-28T17:04:02.813Z,50.70
2019-03-28T17:06:33.746Z,50.40
2019-03-28T17:09:04.767Z,50.40
2019-03-28T17:11:34.948Z,50.60
2019-03-28T17:14:06.740Z,50.70
2019-03-28T17:16:36.936Z,50.80
2019-03-28T17:19:07.220Z,50.80
2019-03-28T17:21:37.520Z,50.80
2019-03-28T17:24:07.784Z,50.80
2019-03-28T17:26:37.987Z,51.10
2019-03-28T17:29:08.202Z,51.10
2019-03-28T17:31:38.407Z,51.80
2019-03-28T17:34:08.650Z,52.00
2019-03-28T17:36:41.435Z,52.40
2019-03-28T17:39:11.627Z,52.40
2019-03-28T17:41:41.916Z,52.70
2019-03-28T17:44:14.424Z,52.70
2019-03-28T17:46:44.839Z,52.70
2019-03-28T17:49:15.387Z,53.00
2019-03-28T17:51:45.606Z,52.60
2019-03-28T17:54:15.838Z,52.60
2019-03-28T17:56:46.212Z,52.70
2019-03-28T17:59:16.445Z,52.70
2019-03-28T18:01:47.020Z,52.60
2019-03-28T18:04:22.725Z,52.60
2019-03-28T18:06:49.371Z,52.40
2019-03-28T18:09:20.203Z,52.40
2019-03-28T18:11:51.472Z,52.30
2019-03-28T18:14:21.815Z,52.20
2019-03-28T18:16:52.127Z,52.20
2019-03-28T18:19:22.410Z,52.10
2019-03-28T18:22:02.742Z,52.00
2019-03-28T18:24:24.666Z,51.90
2019-03-28T18:26:54.852Z,51.80
2019-03-28T18:29:25.122Z,51.90
2019-03-28T18:31:55.438Z,52.00
2019-03-28T18:34:27.364Z,51.90
2019-03-28T18:36:58.434Z,51.90
2019-03-28T18:39:28.991Z,52.00
2019-03-28T18:41:59.488Z,51.90
2019-03-28T18:44:29.777Z,51.90
2019-03-28T18:47:00.038Z,52.10
2019-03-28T18:49:30.963Z,52.10
2019-03-28T18:52:01.467Z,52.20
2019-03-28T18:54:31.873Z,52.50
2019-03-28T18:57:03.360Z,52.60
2019-03-28T18:59:33.865Z,52.70
2019-03-28T19:02:04.116Z,52.70
2019-03-28T19:04:35.917Z,52.70
2019-03-28T19:07:06.418Z,52.80
2019-03-28T19:09:39.071Z,52.90
2019-03-28T19:12:09.434Z,52.90
2019-03-28T19:14:39.616Z,52.80
2019-03-28T19:17:09.857Z,52.80
2019-03-28T19:19:41.788Z,52.90
2019-03-28T19:22:12.276Z,53.10
2019-03-28T19:24:42.774Z,53.30
2019-03-28T19:27:14.806Z,53.40
2019-03-28T19:29:45.310Z,53.50
2019-03-28T19:32:15.568Z,53.50
2019-03-28T19:34:45.791Z,53.50
2019-03-28T19:37:19.181Z,53.60
2019-03-28T19:39:49.604Z,53.50
2019-03-28T19:42:22.479Z,53.50
2019-03-28T19:44:51.900Z,53.10
2019-03-28T19:47:22.187Z,52.90
2019-03-28T19:49:52.414Z,52.70
2019-03-28T19:52:23.564Z,52.60
2019-03-28T19:54:55.322Z,52.40
2019-03-28T19:57:25.616Z,52.60
2019-03-28T19:59:58.623Z,52.70
2019-03-28T20:02:28.805Z,52.80
2019-03-28T20:04:59.066Z,53.20
2019-03-28T20:07:29.356Z,52.70
2019-03-28T20:09:59.621Z,52.70
2019-03-28T20:12:29.868Z,52.70
2019-03-28T20:15:00.519Z,52.60
2019-03-28T20:17:31.004Z,52.60
2019-03-28T20:20:01.259Z,52.60
2019-03-28T20:22:31.513Z,52.60
2019-03-28T20:25:01.732Z,52.60
2019-03-28T20:27:31.981Z,52.30
2019-03-28T20:30:02.263Z,51.90
2019-03-28T20:32:32.502Z,52.50
2019-03-28T20:35:04.580Z,51.70
2019-03-28T20:37:34.969Z,51.70
2019-03-28T20:40:07.125Z,51.60
2019-03-28T20:42:37.499Z,51.40
2019-03-28T20:45:07.808Z,51.50
2019-03-28T20:47:37.984Z,51.60
2019-03-28T20:50:08.201Z,51.70
2019-03-28T20:52:38.400Z,51.80
2019-03-28T20:55:08.599Z,51.90
2019-03-28T20:57:40.431Z,52.00
2019-03-28T21:00:10.973Z,52.10
2019-03-28T21:02:41.163Z,52.40
2019-03-28T21:05:14.239Z,52.60
2019-03-28T21:07:43.341Z,52.90
2019-03-28T21:10:16.657Z,53.00
2019-03-28T21:12:46.983Z,53.20
2019-03-28T21:15:17.280Z,53.40
2019-03-28T21:17:47.569Z,53.70
2019-03-28T21:20:17.766Z,53.60
2019-03-28T21:22:48.012Z,53.40
2019-03-28T21:25:18.209Z,53.30
2019-03-28T21:27:48.404Z,53.20
2019-03-28T21:30:20.308Z,53.20
2019-03-28T21:32:55.633Z,53.20
2019-03-28T21:35:22.718Z,53.10
2019-03-28T21:37:52.901Z,53.50
2019-03-28T21:40:23.092Z,52.90
2019-03-28T21:42:53.443Z,52.80
2019-03-28T21:45:23.635Z,52.70
2019-03-28T21:47:53.843Z,52.60
2019-03-28T21:50:24.078Z,52.40
2019-03-28T21:52:54.340Z,52.60
2019-03-28T21:55:24.620Z,52.70
2019-03-28T21:57:54.841Z,52.80
2019-03-28T22:00:25.957Z,52.60
2019-03-28T22:02:56.159Z,52.70
2019-03-28T22:05:28.856Z,52.50
2019-03-28T22:07:58.416Z,52.60
2019-03-28T22:10:28.702Z,52.70
2019-03-28T22:13:00.535Z,52.70
2019-03-28T22:15:31.692Z,52.70
2019-03-28T22:18:02.108Z,52.40
2019-03-28T22:20:32.324Z,52.30
2019-03-28T22:23:02.528Z,52.10
2019-03-28T22:25:32.785Z,52.10
2019-03-28T22:28:03.106Z,52.10
2019-03-28T22:30:33.411Z,52.10
2019-03-28T22:33:03.709Z,52.00
2019-03-28T22:35:33.986Z,52.00
2019-03-28T22:38:04.177Z,52.00
2019-03-28T22:40:34.604Z,52.10
2019-03-28T22:43:04.875Z,52.00
2019-03-28T22:45:35.189Z,51.90
2019-03-28T22:48:11.077Z,51.90
2019-03-28T22:50:37.326Z,51.70
2019-03-28T22:53:07.572Z,51.70
2019-03-28T22:55:37.817Z,51.40
2019-03-28T22:58:08.395Z,51.40
2019-03-28T23:00:40.292Z,51.50
2019-03-28T23:03:10.491Z,51.50
2019-03-28T23:05:40.714Z,51.90
2019-03-28T23:08:11.244Z,52.50
2019-03-28T23:10:41.431Z,53.30
2019-03-28T23:13:11.643Z,53.90
2019-03-28T23:15:41.848Z,54.50
2019-03-28T23:18:12.859Z,55.10
2019-03-28T23:20:43.970Z,55.60
2019-03-28T23:23:14.282Z,56.10
2019-03-28T23:25:44.667Z,56.90
2019-03-28T23:28:14.931Z,57.40
2019-03-28T23:30:45.299Z,58.00
2019-03-28T23:33:15.590Z,58.40
2019-03-28T23:35:45.895Z,58.90
2019-03-28T23:38:16.156Z,59.30
2019-03-28T23:40:46.362Z,59.60
2019-03-28T23:43:16.626Z,59.80
2019-03-28T23:45:46.862Z,60.00
2019-03-28T23:48:17.159Z,60.40
2019-03-28T23:50:48.907Z,60.60
2019-03-28T23:53:19.116Z,60.80
2019-03-28T23:55:49.348Z,61.00
2019-03-28T23:58:20.928Z,61.30
